createdAt,value
2022-11-20T00:01:14.622Z,40.10
2022-11-20T00:03:44.666Z,41.03
2022-11-20T00:06:14.549Z,40.97
2022-11-20T00:08:43.012Z,42.97
2022-11-20T00:11:15.786Z,43.00
2022-11-20T00:13:44.580Z,41.85
2022-11-20T00:16:14.122Z,44.22
2022-11-20T00:18:43.358Z,44.80
2022-11-20T00:21:14.613Z,45.63
2022-11-20T00:23:43.338Z,45.97
2022-11-20T00:26:12.703Z,44.78
2022-11-20T00:28:41.502Z,45.72
2022-11-20T00:31:11.330Z,42.90
2022-11-20T00:33:39.660Z,44.08
2022-11-20T00:36:10.246Z,42.63
2022-11-20T00:38:39.978Z,41.83
2022-11-20T00:41:09.240Z,43.17
2022-11-20T00:43:37.819Z,42.42
2022-11-20T00:46:08.473Z,41.47
2022-11-20T00:48:37.034Z,42.75
2022-11-20T00:51:05.720Z,43.63
2022-11-20T00:53:34.118Z,44.90
2022-11-20T00:56:05.436Z,48.28
2022-11-20T00:58:34.834Z,47.17
2022-11-20T01:01:03.553Z,46.75
2022-11-20T01:03:33.328Z,46.72
2022-11-20T01:06:05.799Z,47.17
2022-11-20T01:08:35.191Z,48.25
2022-11-20T01:11:06.798Z,49.00
2022-11-20T01:13:42.224Z,51.53
2022-11-20T01:16:11.821Z,51.75
2022-11-20T01:18:42.874Z,50.80
2022-11-20T01:21:13.229Z,50.80
2022-11-20T01:26:14.654Z,49.58
2022-11-20T01:28:43.606Z,52.45
2022-11-20T01:31:16.455Z,55.15
2022-11-20T01:33:45.874Z,52.83
2022-11-20T01:36:15.003Z,54.95
2022-11-20T01:38:43.512Z,56.42
2022-11-20T01:41:34.524Z,60.63
2022-11-20T01:44:03.241Z,60.90
2022-11-20T01:46:31.339Z,62.00
2022-11-20T01:49:03.298Z,64.55
2022-11-20T01:51:35.849Z,67.93
2022-11-20T01:54:07.603Z,67.35
2022-11-20T01:56:39.356Z,67.55
2022-11-20T01:59:09.692Z,68.95
2022-11-20T02:01:38.003Z,70.47
2022-11-20T02:04:06.544Z,69.80
2022-11-20T02:06:38.209Z,65.97
2022-11-20T02:09:06.532Z,67.60
2022-11-20T02:11:34.599Z,68.72
2022-11-20T02:14:03.367Z,70.22
2022-11-20T02:16:34.670Z,72.40
2022-11-20T02:19:04.926Z,75.70
2022-11-20T02:21:37.478Z,75.18
2022-11-20T02:24:10.297Z,75.10
2022-11-20T02:26:44.379Z,72.95
2022-11-20T02:29:12.954Z,77.45
2022-11-20T02:31:43.679Z,76.22
2022-11-20T02:34:11.972Z,77.65
2022-11-20T02:36:41.775Z,79.18
2022-11-20T02:39:12.152Z,79.53
2022-11-20T02:41:40.535Z,80.80
2022-11-20T02:44:08.985Z,76.47
2022-11-20T02:46:37.304Z,75.88
2022-11-20T02:49:06.861Z,72.63
2022-11-20T02:51:35.039Z,71.57
2022-11-20T02:54:03.562Z,69.53
2022-11-20T02:56:33.346Z,64.43
2022-11-20T02:59:01.780Z,65.10
2022-11-20T03:01:29.961Z,63.42
2022-11-20T03:03:58.496Z,63.90
2022-11-20T03:06:26.676Z,62.08
2022-11-20T03:08:55.140Z,63.00
2022-11-20T03:11:23.469Z,60.88
2022-11-20T07:34:04.709Z,41.92
2022-11-20T07:36:32.780Z,42.10
2022-11-20T07:39:01.121Z,44.38
2022-11-20T07:41:30.167Z,47.35
2022-11-20T07:43:58.539Z,43.50
2022-11-20T07:46:26.816Z,44.80
2022-11-20T07:48:55.688Z,45.58
2022-11-20T07:51:25.011Z,44.75
2022-11-20T07:53:53.863Z,43.25
2022-11-20T07:56:21.871Z,48.15
2022-11-20T07:58:50.381Z,46.90
2022-11-20T08:01:18.488Z,46.33
2022-11-20T08:03:46.993Z,43.85
2022-11-20T08:06:15.815Z,45.13
2022-11-20T08:08:45.692Z,44.92
2022-11-20T08:11:31.128Z,45.92
2022-11-20T08:14:14.603Z,45.95
2022-11-20T08:16:43.141Z,46.13
2022-11-20T08:19:11.790Z,47.03
2022-11-20T08:21:40.057Z,45.90
2022-11-20T08:24:10.643Z,46.45
2022-11-20T08:26:40.008Z,49.75
2022-11-20T08:29:08.769Z,47.70
2022-11-20T08:31:37.204Z,45.95
2022-11-20T08:34:25.575Z,47.30
2022-11-20T08:36:53.684Z,43.72
2022-11-20T08:39:23.666Z,47.53
2022-11-20T08:41:51.986Z,47.03
2022-11-20T08:44:20.309Z,39.53
2022-11-20T08:46:48.307Z,44.30
2022-11-20T08:49:17.165Z,50.03
2022-11-20T08:51:46.090Z,50.75
2022-11-20T08:54:14.604Z,43.85
2022-11-20T08:56:44.002Z,41.63
2022-11-20T08:59:50.682Z,41.15
2022-11-20T09:02:00.540Z,45.42
2022-11-20T09:04:28.861Z,40.15
2022-11-20T09:06:56.938Z,37.72
2022-11-20T09:09:25.807Z,39.92
2022-11-20T09:11:55.553Z,37.08
2022-11-20T09:14:25.879Z,50.75
2022-11-20T09:16:53.970Z,51.75
2022-11-20T09:19:36.557Z,44.38
2022-11-20T09:22:04.769Z,38.80
2022-11-20T09:24:33.064Z,35.33
2022-11-20T09:27:05.771Z,35.88
2022-11-20T09:29:34.246Z,30.98
2022-11-20T09:32:02.311Z,29.77
2022-11-20T09:34:30.703Z,30.63
2022-11-20T09:37:01.578Z,29.35
2022-11-20T09:39:32.911Z,33.13
2022-11-20T09:42:13.841Z,60.17
2022-11-20T09:44:54.464Z,40.38
2022-11-20T09:47:30.735Z,36.88
2022-11-20T09:50:12.891Z,37.63
2022-11-20T09:52:48.466Z,37.67
2022-11-20T09:55:17.254Z,28.60
2022-11-20T09:57:48.575Z,30.25
2022-11-20T10:00:17.805Z,29.55
2022-11-20T10:02:50.291Z,28.77
2022-11-20T10:05:21.239Z,32.03
2022-11-20T10:07:56.464Z,43.92
2022-11-20T10:10:32.775Z,49.17
2022-11-20T10:13:13.039Z,32.63
2022-11-20T10:15:49.892Z,44.77
2022-11-20T10:18:27.540Z,29.48
2022-11-20T10:21:00.471Z,28.02
2022-11-20T10:23:48.615Z,29.90
2022-11-20T10:26:21.213Z,34.30
2022-11-20T10:29:21.007Z,29.80
2022-11-20T10:31:55.885Z,29.13
2022-11-20T10:34:28.111Z,27.75
2022-11-20T10:36:58.211Z,52.83
2022-11-20T10:39:33.547Z,28.67
2022-11-20T10:42:01.944Z,31.60
2022-11-20T10:44:52.503Z,27.67
2022-11-20T10:47:24.961Z,32.30
2022-11-20T10:49:55.399Z,30.35
2022-11-20T10:52:29.388Z,27.48
2022-11-20T10:55:02.221Z,47.63
2022-11-20T10:57:44.257Z,29.63
2022-11-20T11:00:15.335Z,23.05
2022-11-20T11:02:45.724Z,27.35
2022-11-20T11:05:33.534Z,24.15
2022-11-20T11:08:01.878Z,29.60
2022-11-20T11:10:35.346Z,24.45
2022-11-20T11:13:03.717Z,63.20
2022-11-20T11:15:40.288Z,30.70
2022-11-20T11:18:11.175Z,34.80
2022-11-20T11:20:39.966Z,39.20
2022-11-20T11:23:29.113Z,32.30
2022-11-20T11:26:00.708Z,31.90
2022-11-20T11:28:29.552Z,25.98
2022-11-20T11:30:59.091Z,31.20
2022-11-20T11:33:28.786Z,27.80
2022-11-20T11:35:59.297Z,29.40
2022-11-20T11:38:31.969Z,29.70
2022-11-20T11:41:00.181Z,28.50
2022-11-20T11:43:49.599Z,27.77
2022-11-20T11:46:28.733Z,44.28
2022-11-20T11:49:00.722Z,26.65
2022-11-20T11:51:32.703Z,26.88
2022-11-20T11:54:01.616Z,27.17
2022-11-20T11:56:30.583Z,45.17
2022-11-20T11:59:01.675Z,31.63
2022-11-20T12:01:35.305Z,27.63
2022-11-20T12:04:07.405Z,30.38
2022-11-20T12:06:38.143Z,28.20
2022-11-20T12:09:07.862Z,34.65
2022-11-20T12:11:41.235Z,31.08
2022-11-20T12:14:15.840Z,31.50
2022-11-20T12:16:45.428Z,30.30
2022-11-20T12:19:15.735Z,28.60
2022-11-20T12:21:58.476Z,27.70
2022-11-20T12:24:49.298Z,38.20
2022-11-20T12:27:40.508Z,31.38
2022-11-20T12:30:11.421Z,39.30
2022-11-20T12:32:56.414Z,36.27
2022-11-20T12:35:44.920Z,37.53
2022-11-20T12:38:48.644Z,32.50
2022-11-20T12:41:37.579Z,29.83
2022-11-20T12:44:30.729Z,34.20
2022-11-20T12:47:10.999Z,31.33
2022-11-20T12:49:44.520Z,44.28
2022-11-20T12:52:23.269Z,33.70
2022-11-20T12:55:10.421Z,37.50
2022-11-20T12:57:46.016Z,39.75
2022-11-20T13:00:17.414Z,35.38
2022-11-20T13:03:15.976Z,47.35
2022-11-20T13:05:53.693Z,38.15
2022-11-20T13:08:24.877Z,50.05
2022-11-20T13:10:59.678Z,38.53
2022-11-20T13:13:33.548Z,37.95
2022-11-20T13:16:06.481Z,44.88
2022-11-20T13:18:48.629Z,37.78
2022-11-20T13:21:37.131Z,39.20
2022-11-20T13:24:09.095Z,36.17
2022-11-20T13:26:37.206Z,54.53
2022-11-20T13:29:11.900Z,52.60
2022-11-20T13:31:43.844Z,45.28
2022-11-20T13:34:15.126Z,37.90
2022-11-20T13:36:53.601Z,38.45
2022-11-20T13:39:28.457Z,37.17
2022-11-20T13:41:57.948Z,39.25
2022-11-20T13:44:29.000Z,38.13
2022-11-20T13:46:57.133Z,41.13
2022-11-20T13:49:28.523Z,40.65
2022-11-20T13:52:08.446Z,42.20
2022-11-20T13:54:55.193Z,42.83
2022-11-20T13:57:37.959Z,44.78
2022-11-20T14:00:21.204Z,47.58
2022-11-20T14:03:01.919Z,43.85
2022-11-20T14:05:31.098Z,57.35
2022-11-20T14:08:00.950Z,46.42
2022-11-20T14:10:32.312Z,43.03
2022-11-20T14:13:00.882Z,46.05
2022-11-20T14:15:32.128Z,49.78
2022-11-20T14:18:01.050Z,46.38
2022-11-20T14:20:32.409Z,48.28
2022-11-20T14:23:01.902Z,44.88
2022-11-20T14:25:32.088Z,43.53
2022-11-20T14:28:02.214Z,50.80
2022-11-20T14:30:38.103Z,49.17
2022-11-20T14:33:06.348Z,51.42
2022-11-20T14:35:46.409Z,47.45
2022-11-20T14:38:17.724Z,50.42
2022-11-20T14:40:46.399Z,48.63
2022-11-20T14:43:20.627Z,47.25
2022-11-20T14:45:55.249Z,47.40
2022-11-20T14:48:26.508Z,50.08
2022-11-20T14:50:54.812Z,48.88
2022-11-20T14:53:26.666Z,49.25
2022-11-20T14:56:00.261Z,48.20
2022-11-20T14:58:29.762Z,51.33
2022-11-20T15:00:59.112Z,48.35
2022-11-20T15:03:34.068Z,53.00
2022-11-20T15:06:02.854Z,50.08
2022-11-20T15:08:32.516Z,45.10
2022-11-20T15:11:01.050Z,44.40
2022-11-20T15:13:32.323Z,45.88
2022-11-20T15:16:01.576Z,48.28
2022-11-20T15:18:32.132Z,48.63
2022-11-20T15:21:03.867Z,51.10
2022-11-20T15:23:33.285Z,46.40
2022-11-20T15:26:01.687Z,47.63
2022-11-20T15:28:32.638Z,43.92
2022-11-20T15:33:29.883Z,42.30
2022-11-20T15:35:58.688Z,52.25
2022-11-20T15:38:26.880Z,44.75
2022-11-20T15:40:56.646Z,44.35
2022-11-20T15:43:24.707Z,43.50
2022-11-20T15:45:55.597Z,44.40
2022-11-20T15:48:25.544Z,44.42
2022-11-20T15:50:56.908Z,44.88
2022-11-20T15:53:25.115Z,50.05
2022-11-20T15:55:53.564Z,47.45
2022-11-20T15:58:24.029Z,50.45
2022-11-20T16:00:52.766Z,49.10
2022-11-20T16:03:21.106Z,50.40
2022-11-20T16:05:49.522Z,52.35
2022-11-20T16:08:17.618Z,53.58
2022-11-20T16:10:46.021Z,50.63
2022-11-20T16:13:33.266Z,47.55
2022-11-20T16:16:06.534Z,51.75
2022-11-20T16:18:35.326Z,47.47
2022-11-20T16:21:04.193Z,50.13
2022-11-20T16:23:32.311Z,49.90
2022-11-20T16:26:00.720Z,50.13
2022-11-20T16:28:28.967Z,51.08
2022-11-20T16:30:57.457Z,50.67
2022-11-20T16:33:27.008Z,52.50
2022-11-20T16:35:55.416Z,53.53
2022-11-20T16:38:23.625Z,49.65
2022-11-20T16:40:52.005Z,51.88
2022-11-20T16:43:20.377Z,52.42
2022-11-20T16:45:48.841Z,51.83
2022-11-20T16:48:17.931Z,50.10
2022-11-20T16:50:52.524Z,49.20
2022-11-20T16:53:22.141Z,49.08
2022-11-20T16:55:50.819Z,47.03
2022-11-20T16:58:19.020Z,44.67
2022-11-20T17:00:51.595Z,46.00
2022-11-20T17:03:21.130Z,45.25
2022-11-20T17:05:51.017Z,41.50
2022-11-20T17:08:19.275Z,41.90
2022-11-20T17:10:47.834Z,49.08
2022-11-20T17:13:17.154Z,47.90
2022-11-20T17:15:45.479Z,49.40
2022-11-20T17:18:13.572Z,43.72
2022-11-20T17:20:41.948Z,43.55
2022-11-20T17:23:11.504Z,45.70
2022-11-20T17:25:39.982Z,47.85
2022-11-20T17:28:08.154Z,52.45
2022-11-20T17:30:36.526Z,49.30
2022-11-20T17:33:04.735Z,49.83
2022-11-20T17:35:33.081Z,45.45
2022-11-20T17:38:01.175Z,43.95
2022-11-20T17:40:32.111Z,41.88
2022-11-20T17:43:00.210Z,42.50
2022-11-20T17:45:28.649Z,42.72
2022-11-20T17:47:57.849Z,40.90
2022-11-20T17:50:26.651Z,41.30
2022-11-20T17:52:55.455Z,37.92
2022-11-20T17:55:24.076Z,37.28
2022-11-20T17:57:52.675Z,36.95
2022-11-20T18:00:21.264Z,38.03
2022-11-20T18:02:49.485Z,35.15
2022-11-20T18:05:18.135Z,34.88
2022-11-20T18:07:46.459Z,35.50
2022-11-20T18:10:15.056Z,33.30
2022-11-20T18:12:44.043Z,36.58
2022-11-20T18:15:13.982Z,36.63
2022-11-20T18:17:42.102Z,36.78
2022-11-20T18:20:28.753Z,37.63
2022-11-20T18:22:57.829Z,38.10
2022-11-20T18:25:26.341Z,38.00
2022-11-20T18:27:54.954Z,39.83
2022-11-20T18:30:25.126Z,40.95
2022-11-20T18:32:53.638Z,40.88
2022-11-20T18:35:22.417Z,41.30
2022-11-20T18:37:50.517Z,40.45
2022-11-20T18:40:19.021Z,43.80
2022-11-20T18:43:04.708Z,42.40
2022-11-20T18:45:34.688Z,45.08
2022-11-20T18:48:02.933Z,42.55
2022-11-20T18:50:31.437Z,42.88
2022-11-20T18:52:59.532Z,41.20
2022-11-20T18:55:27.980Z,38.13
2022-11-20T18:57:56.209Z,39.03
2022-11-20T19:00:24.951Z,39.50
2022-11-20T19:02:55.493Z,38.65
2022-11-20T19:05:23.984Z,36.60
2022-11-20T19:07:52.447Z,32.53
2022-11-20T19:10:21.314Z,32.78
2022-11-20T19:12:49.514Z,30.70
2022-11-20T19:15:17.926Z,30.65
2022-11-20T19:17:46.123Z,31.23
2022-11-20T19:20:15.996Z,30.77
2022-11-20T19:22:44.170Z,30.17
2022-11-20T19:25:12.661Z,29.85
2022-11-20T19:27:40.982Z,29.23
2022-11-20T19:30:10.735Z,30.02
2022-11-20T19:32:38.939Z,26.88
2022-11-20T19:35:07.915Z,27.25
2022-11-20T19:37:37.628Z,26.17
2022-11-20T19:40:07.054Z,27.00
2022-11-20T19:42:35.338Z,27.00
2022-11-20T19:45:03.715Z,28.80
2022-11-20T19:48:00.553Z,29.70
2022-11-20T19:50:20.368Z,31.13
2022-11-20T19:52:52.013Z,30.77
2022-11-20T19:55:24.112Z,37.53
2022-11-20T19:57:52.340Z,28.63
2022-11-20T20:00:28.093Z,26.70
2022-11-20T20:03:00.643Z,26.33
2022-11-20T20:05:29.025Z,27.45
2022-11-20T20:07:58.860Z,27.38
2022-11-20T20:10:27.323Z,28.48
2022-11-20T20:12:55.583Z,28.35
2022-11-20T20:15:24.100Z,27.75
2022-11-20T20:17:52.945Z,29.35
2022-11-20T20:20:22.944Z,26.90
2022-11-20T20:22:51.156Z,29.13
2022-11-20T20:25:21.040Z,29.67
2022-11-20T20:27:49.180Z,27.45
2022-11-20T20:30:17.682Z,30.13
2022-11-20T20:32:45.846Z,28.67
2022-11-20T20:35:14.257Z,28.15
2022-11-20T20:37:42.554Z,35.38
2022-11-20T20:40:15.103Z,28.13
2022-11-20T20:42:45.270Z,30.15
2022-11-20T20:45:12.695Z,30.65
2022-11-20T20:47:42.003Z,31.60
2022-11-20T20:50:11.661Z,34.13
2022-11-20T20:52:39.988Z,32.50
2022-11-20T20:55:08.914Z,31.13
2022-11-20T20:57:37.353Z,31.58
2022-11-20T21:00:09.049Z,32.35
2022-11-20T21:05:05.907Z,28.67
2022-11-20T21:07:34.062Z,29.55
2022-11-20T21:10:02.477Z,30.35
2022-11-20T21:12:30.609Z,29.55
2022-11-20T21:14:58.923Z,30.15
2022-11-20T21:17:29.231Z,29.33
2022-11-20T21:19:57.730Z,30.40
2022-11-20T21:22:24.778Z,29.23
2022-11-20T21:24:53.171Z,30.50
2022-11-20T21:27:21.316Z,29.73
2022-11-20T21:29:49.884Z,30.42
2022-11-20T21:32:18.064Z,31.38
2022-11-20T21:34:47.889Z,31.92
2022-11-20T21:37:16.025Z,33.10
2022-11-20T21:39:50.799Z,34.20
2022-11-20T21:42:19.041Z,34.88
2022-11-20T21:44:47.960Z,36.00
2022-11-20T21:47:16.110Z,42.10
2022-11-20T21:49:44.436Z,43.83
2022-11-20T21:52:13.883Z,42.53
2022-11-20T21:54:42.250Z,40.10
2022-11-20T21:57:10.321Z,35.72
2022-11-20T21:59:38.667Z,34.42
2022-11-20T22:02:08.062Z,34.47
2022-11-20T22:04:36.547Z,33.38
2022-11-20T22:07:06.323Z,35.22
2022-11-20T22:09:36.266Z,33.67
2022-11-20T22:12:04.778Z,34.92
2022-11-20T22:14:32.252Z,37.80
2022-11-20T22:17:00.306Z,33.08
2022-11-20T22:19:28.710Z,32.08
2022-11-20T22:21:56.767Z,33.25
2022-11-20T22:24:25.447Z,34.45
2022-11-20T22:26:55.242Z,32.72
2022-11-20T22:29:23.561Z,33.83
2022-11-20T22:31:53.164Z,34.53
2022-11-20T22:34:21.928Z,32.58
2022-11-20T22:36:50.126Z,33.55
2022-11-20T22:39:18.793Z,33.00
2022-11-20T22:41:46.890Z,33.08
2022-11-20T22:44:17.385Z,33.13
2022-11-20T22:46:45.500Z,33.78
2022-11-20T22:49:13.981Z,31.85
2022-11-20T22:51:43.079Z,32.13
2022-11-20T22:54:12.750Z,30.65
2022-11-20T22:56:41.310Z,31.35
2022-11-20T22:59:09.811Z,32.47
2022-11-20T23:01:39.549Z,31.17
2022-11-20T23:04:10.702Z,33.42
2022-11-20T23:06:39.131Z,35.08
2022-11-20T23:09:09.449Z,35.45
2022-11-20T23:11:37.686Z,31.00
2022-11-20T23:14:07.360Z,31.73
2022-11-20T23:16:36.179Z,31.70
2022-11-20T23:19:07.676Z,32.05
2022-11-20T23:21:36.219Z,30.33
2022-11-20T23:24:05.217Z,30.50
2022-11-20T23:26:35.508Z,30.20
2022-11-20T23:29:05.304Z,30.30
2022-11-20T23:31:34.257Z,29.05
2022-11-20T23:34:02.876Z,29.85
2022-11-20T23:36:32.381Z,30.55
2022-11-20T23:39:00.754Z,28.75
2022-11-20T23:41:28.744Z,30.90
2022-11-20T23:43:57.175Z,28.65
2022-11-20T23:46:25.268Z,30.20
2022-11-20T23:48:53.624Z,28.10
2022-11-20T23:51:21.625Z,28.83
2022-11-20T23:53:51.383Z,29.60
2022-11-20T23:56:20.863Z,28.77
2022-11-20T23:58:49.305Z,30.02
